sensor_id;sensor_type;location;lat;lon;timestamp;P1;durP1;ratioP1;P2;durP2;ratioP2
22388;SDS011;11362;48.102;11.620;2023-07-13T00:00:53;1.90;;;1.33;;
22388;SDS011;11362;48.102;11.620;2023-07-13T00:03:18;1.60;;;1.47;;
22388;SDS011;11362;48.102;11.620;2023-07-13T00:05:43;1.20;;;1.20;;
22388;SDS011;11362;48.102;11.620;2023-07-13T00:08:09;3.03;;;1.00;;
22388;SDS011;11362;48.102;11.620;2023-07-13T00:10:38;1.53;;;1.20;;
22388;SDS011;11362;48.102;11.620;2023-07-13T00:13:04;1.50;;;1.40;;
22388;SDS011;11362;48.102;11.620;2023-07-13T00:15:30;1.93;;;1.30;;
22388;SDS011;11362;48.102;11.620;2023-07-13T00:17:55;1.20;;;1.20;;
22388;SDS011;11362;48.102;11.620;2023-07-13T00:20:21;1.40;;;1.30;;
22388;SDS011;11362;48.102;11.620;2023-07-13T00:22:48;1.70;;;1.20;;
22388;SDS011;11362;48.102;11.620;2023-07-13T00:25:14;1.53;;;1.27;;
22388;SDS011;11362;48.102;11.620;2023-07-13T00:27:41;1.30;;;1.23;;
22388;SDS011;11362;48.102;11.620;2023-07-13T00:30:07;1.17;;;1.17;;
22388;SDS011;11362;48.102;11.620;2023-07-13T00:32:32;1.00;;;1.00;;
22388;SDS011;11362;48.102;11.620;2023-07-13T00:34:58;1.60;;;1.00;;
22388;SDS011;11362;48.102;11.620;2023-07-13T00:37:23;1.30;;;1.30;;
22388;SDS011;11362;48.102;11.620;2023-07-13T00:39:48;1.57;;;1.47;;
22388;SDS011;11362;48.102;11.620;2023-07-13T00:42:14;1.20;;;1.20;;
22388;SDS011;11362;48.102;11.620;2023-07-13T00:44:39;2.20;;;1.20;;
22388;SDS011;11362;48.102;11.620;2023-07-13T00:47:04;1.30;;;1.20;;
22388;SDS011;11362;48.102;11.620;2023-07-13T00:49:30;1.33;;;1.10;;
22388;SDS011;11362;48.102;11.620;2023-07-13T00:51:59;1.37;;;1.13;;
22388;SDS011;11362;48.102;11.620;2023-07-13T00:54:41;1.20;;;1.20;;
22388;SDS011;11362;48.102;11.620;2023-07-13T00:57:11;2.20;;;1.10;;
22388;SDS011;11362;48.102;11.620;2023-07-13T00:59:40;1.20;;;1.10;;
22388;SDS011;11362;48.102;11.620;2023-07-13T01:02:10;1.63;;;1.10;;
22388;SDS011;11362;48.102;11.620;2023-07-13T01:04:36;0.97;;;0.90;;
22388;SDS011;11362;48.102;11.620;2023-07-13T01:07:02;1.20;;;1.10;;
22388;SDS011;11362;48.102;11.620;2023-07-13T01:09:27;1.43;;;1.10;;
22388;SDS011;11362;48.102;11.620;2023-07-13T01:11:52;0.80;;;0.80;;
22388;SDS011;11362;48.102;11.620;2023-07-13T01:14:18;0.93;;;0.93;;
22388;SDS011;11362;48.102;11.620;2023-07-13T01:16:44;1.03;;;1.03;;
22388;SDS011;11362;48.102;11.620;2023-07-13T01:19:14;1.23;;;1.13;;
22388;SDS011;11362;48.102;11.620;2023-07-13T01:21:41;1.00;;;1.00;;
22388;SDS011;11362;48.102;11.620;2023-07-13T01:24:07;2.03;;;1.00;;
22388;SDS011;11362;48.102;11.620;2023-07-13T01:26:32;2.33;;;1.20;;
22388;SDS011;11362;48.102;11.620;2023-07-13T01:28:57;1.00;;;1.00;;
22388;SDS011;11362;48.102;11.620;2023-07-13T01:31:23;1.83;;;1.20;;
22388;SDS011;11362;48.102;11.620;2023-07-13T01:33:48;1.33;;;1.00;;
22388;SDS011;11362;48.102;11.620;2023-07-13T01:36:13;0.87;;;0.87;;
22388;SDS011;11362;48.102;11.620;2023-07-13T01:38:39;0.90;;;0.90;;
22388;SDS011;11362;48.102;11.620;2023-07-13T01:41:04;1.00;;;0.90;;
22388;SDS011;11362;48.102;11.620;2023-07-13T01:43:29;0.90;;;0.90;;
22388;SDS011;11362;48.102;11.620;2023-07-13T01:45:55;1.10;;;1.00;;
22388;SDS011;11362;48.102;11.620;2023-07-13T01:48:20;0.87;;;0.87;;
22388;SDS011;11362;48.102;11.620;2023-07-13T01:50:46;0.90;;;0.90;;
22388;SDS011;11362;48.102;11.620;2023-07-13T01:53:12;1.40;;;1.13;;
22388;SDS011;11362;48.102;11.620;2023-07-13T01:55:37;1.20;;;1.20;;
22388;SDS011;11362;48.102;11.620;2023-07-13T01:58:03;1.20;;;1.10;;
22388;SDS011;11362;48.102;11.620;2023-07-13T02:00:29;0.80;;;0.80;;
22388;SDS011;11362;48.102;11.620;2023-07-13T02:02:54;0.83;;;0.83;;
22388;SDS011;11362;48.102;11.620;2023-07-13T02:05:20;0.83;;;0.70;;
22388;SDS011;11362;48.102;11.620;2023-07-13T02:07:45;1.60;;;0.90;;
22388;SDS011;11362;48.102;11.620;2023-07-13T02:10:11;1.20;;;1.00;;
22388;SDS011;11362;48.102;11.620;2023-07-13T02:12:37;2.07;;;1.20;;
22388;SDS011;11362;48.102;11.620;2023-07-13T02:15:03;1.33;;;1.07;;
22388;SDS011;11362;48.102;11.620;2023-07-13T02:17:29;0.97;;;0.90;;
22388;SDS011;11362;48.102;11.620;2023-07-13T02:19:55;1.10;;;1.10;;
22388;SDS011;11362;48.102;11.620;2023-07-13T02:22:20;0.80;;;0.80;;
22388;SDS011;11362;48.102;11.620;2023-07-13T02:24:46;1.60;;;1.00;;
22388;SDS011;11362;48.102;11.620;2023-07-13T02:27:12;0.70;;;0.70;;
22388;SDS011;11362;48.102;11.620;2023-07-13T02:29:37;2.00;;;1.00;;
22388;SDS011;11362;48.102;11.620;2023-07-13T02:32:02;1.10;;;1.00;;
22388;SDS011;11362;48.102;11.620;2023-07-13T02:34:28;1.10;;;1.10;;
22388;SDS011;11362;48.102;11.620;2023-07-13T02:36:55;0.90;;;0.90;;
22388;SDS011;11362;48.102;11.620;2023-07-13T02:39:20;1.20;;;0.90;;
22388;SDS011;11362;48.102;11.620;2023-07-13T02:41:45;1.00;;;1.00;;
22388;SDS011;11362;48.102;11.620;2023-07-13T02:44:12;0.83;;;0.83;;
22388;SDS011;11362;48.102;11.620;2023-07-13T02:46:38;0.70;;;0.70;;
22388;SDS011;11362;48.102;11.620;2023-07-13T02:49:04;1.20;;;1.10;;
22388;SDS011;11362;48.102;11.620;2023-07-13T02:51:29;1.43;;;1.20;;
22388;SDS011;11362;48.102;11.620;2023-07-13T02:53:55;1.47;;;0.83;;
22388;SDS011;11362;48.102;11.620;2023-07-13T02:56:22;1.03;;;0.97;;
22388;SDS011;11362;48.102;11.620;2023-07-13T02:58:49;0.60;;;0.60;;
22388;SDS011;11362;48.102;11.620;2023-07-13T03:01:15;0.70;;;0.70;;
22388;SDS011;11362;48.102;11.620;2023-07-13T03:03:40;0.80;;;0.80;;
22388;SDS011;11362;48.102;11.620;2023-07-13T03:06:05;0.90;;;0.90;;
22388;SDS011;11362;48.102;11.620;2023-07-13T03:08:31;0.77;;;0.77;;
22388;SDS011;11362;48.102;11.620;2023-07-13T03:11:00;0.80;;;0.80;;
22388;SDS011;11362;48.102;11.620;2023-07-13T03:13:26;1.00;;;1.00;;
22388;SDS011;11362;48.102;11.620;2023-07-13T03:15:52;1.20;;;1.10;;
22388;SDS011;11362;48.102;11.620;2023-07-13T03:18:17;0.80;;;0.80;;
22388;SDS011;11362;48.102;11.620;2023-07-13T03:20:42;0.87;;;0.87;;
22388;SDS011;11362;48.102;11.620;2023-07-13T03:23:08;1.47;;;1.30;;
22388;SDS011;11362;48.102;11.620;2023-07-13T03:25:33;0.73;;;0.73;;
22388;SDS011;11362;48.102;11.620;2023-07-13T03:27:58;1.10;;;1.00;;
22388;SDS011;11362;48.102;11.620;2023-07-13T03:30:24;1.03;;;1.03;;
22388;SDS011;11362;48.102;11.620;2023-07-13T03:32:49;1.67;;;0.90;;
22388;SDS011;11362;48.102;11.620;2023-07-13T03:35:14;1.33;;;0.93;;
22388;SDS011;11362;48.102;11.620;2023-07-13T03:37:39;0.80;;;0.80;;
22388;SDS011;11362;48.102;11.620;2023-07-13T03:40:05;0.97;;;0.97;;
22388;SDS011;11362;48.102;11.620;2023-07-13T03:42:31;0.80;;;0.80;;
22388;SDS011;11362;48.102;11.620;2023-07-13T03:44:56;0.77;;;0.77;;
22388;SDS011;11362;48.102;11.620;2023-07-13T03:47:21;0.90;;;0.90;;
22388;SDS011;11362;48.102;11.620;2023-07-13T03:49:46;0.90;;;0.90;;
22388;SDS011;11362;48.102;11.620;2023-07-13T03:52:12;1.23;;;1.13;;
22388;SDS011;11362;48.102;11.620;2023-07-13T03:54:37;1.10;;;1.10;;
22388;SDS011;11362;48.102;11.620;2023-07-13T03:57:02;1.10;;;1.00;;
22388;SDS011;11362;48.102;11.620;2023-07-13T03:59:28;1.00;;;1.00;;
22388;SDS011;11362;48.102;11.620;2023-07-13T04:01:53;1.10;;;1.10;;
22388;SDS011;11362;48.102;11.620;2023-07-13T04:04:18;0.90;;;0.90;;
22388;SDS011;11362;48.102;11.620;2023-07-13T04:06:44;1.00;;;1.00;;
22388;SDS011;11362;48.102;11.620;2023-07-13T04:09:09;2.40;;;0.83;;
22388;SDS011;11362;48.102;11.620;2023-07-13T04:11:34;0.90;;;0.90;;
22388;SDS011;11362;48.102;11.620;2023-07-13T04:14:00;0.80;;;0.80;;
22388;SDS011;11362;48.102;11.620;2023-07-13T04:16:25;0.80;;;0.80;;
22388;SDS011;11362;48.102;11.620;2023-07-13T04:18:51;2.33;;;1.00;;
22388;SDS011;11362;48.102;11.620;2023-07-13T04:21:16;1.27;;;1.20;;
22388;SDS011;11362;48.102;11.620;2023-07-13T04:23:42;1.00;;;1.00;;
22388;SDS011;11362;48.102;11.620;2023-07-13T04:26:07;0.80;;;0.80;;
22388;SDS011;11362;48.102;11.620;2023-07-13T04:28:33;1.20;;;1.13;;
22388;SDS011;11362;48.102;11.620;2023-07-13T04:30:59;1.80;;;1.10;;
22388;SDS011;11362;48.102;11.620;2023-07-13T04:33:24;0.80;;;0.80;;
22388;SDS011;11362;48.102;11.620;2023-07-13T04:35:51;0.80;;;0.80;;
22388;SDS011;11362;48.102;11.620;2023-07-13T04:38:18;0.80;;;0.80;;
22388;SDS011;11362;48.102;11.620;2023-07-13T04:40:47;1.13;;;0.90;;
22388;SDS011;11362;48.102;11.620;2023-07-13T04:43:12;1.03;;;1.03;;
22388;SDS011;11362;48.102;11.620;2023-07-13T04:45:38;1.00;;;1.00;;
22388;SDS011;11362;48.102;11.620;2023-07-13T04:48:03;1.63;;;1.07;;
22388;SDS011;11362;48.102;11.620;2023-07-13T04:50:28;2.00;;;1.10;;
22388;SDS011;11362;48.102;11.620;2023-07-13T04:52:54;0.87;;;0.87;;
22388;SDS011;11362;48.102;11.620;2023-07-13T04:55:19;1.10;;;1.00;;
22388;SDS011;11362;48.102;11.620;2023-07-13T04:57:46;0.80;;;0.80;;
22388;SDS011;11362;48.102;11.620;2023-07-13T05:00:11;0.87;;;0.87;;
22388;SDS011;11362;48.102;11.620;2023-07-13T05:02:38;0.90;;;0.90;;
22388;SDS011;11362;48.102;11.620;2023-07-13T05:05:04;1.00;;;1.00;;
22388;SDS011;11362;48.102;11.620;2023-07-13T05:07:30;3.83;;;1.90;;
22388;SDS011;11362;48.102;11.620;2023-07-13T05:09:55;2.73;;;1.57;;
22388;SDS011;11362;48.102;11.620;2023-07-13T05:12:21;4.30;;;1.90;;
22388;SDS011;11362;48.102;11.620;2023-07-13T05:14:46;2.10;;;1.50;;
22388;SDS011;11362;48.102;11.620;2023-07-13T05:17:11;4.20;;;1.83;;
22388;SDS011;11362;48.102;11.620;2023-07-13T05:19:37;3.63;;;2.17;;
22388;SDS011;11362;48.102;11.620;2023-07-13T05:22:02;5.83;;;1.90;;
22388;SDS011;11362;48.102;11.620;2023-07-13T05:24:28;5.40;;;1.90;;
22388;SDS011;11362;48.102;11.620;2023-07-13T05:26:53;3.80;;;2.30;;
22388;SDS011;11362;48.102;11.620;2023-07-13T05:29:19;2.17;;;1.80;;
22388;SDS011;11362;48.102;11.620;2023-07-13T05:31:45;4.50;;;1.70;;
22388;SDS011;11362;48.102;11.620;2023-07-13T05:34:10;2.20;;;1.77;;
22388;SDS011;11362;48.102;11.620;2023-07-13T05:36:35;7.53;;;1.80;;
22388;SDS011;11362;48.102;11.620;2023-07-13T05:39:00;2.83;;;1.57;;
22388;SDS011;11362;48.102;11.620;2023-07-13T05:41:27;2.40;;;1.43;;
22388;SDS011;11362;48.102;11.620;2023-07-13T05:43:53;4.20;;;1.60;;
22388;SDS011;11362;48.102;11.620;2023-07-13T05:46:18;4.13;;;2.13;;
22388;SDS011;11362;48.102;11.620;2023-07-13T05:48:43;2.30;;;1.60;;
22388;SDS011;11362;48.102;11.620;2023-07-13T05:51:08;6.40;;;1.93;;
22388;SDS011;11362;48.102;11.620;2023-07-13T05:53:34;3.87;;;2.00;;
22388;SDS011;11362;48.102;11.620;2023-07-13T05:55:59;6.03;;;1.90;;
22388;SDS011;11362;48.102;11.620;2023-07-13T05:58:24;3.13;;;2.10;;
22388;SDS011;11362;48.102;11.620;2023-07-13T06:00:57;3.27;;;1.73;;
22388;SDS011;11362;48.102;11.620;2023-07-13T06:03:30;5.47;;;2.13;;
22388;SDS011;11362;48.102;11.620;2023-07-13T06:05:56;7.40;;;2.37;;
22388;SDS011;11362;48.102;11.620;2023-07-13T06:08:22;6.87;;;2.40;;
22388;SDS011;11362;48.102;11.620;2023-07-13T06:10:47;3.60;;;1.90;;
22388;SDS011;11362;48.102;11.620;2023-07-13T06:13:12;4.70;;;1.90;;
22388;SDS011;11362;48.102;11.620;2023-07-13T06:15:38;3.60;;;1.83;;
22388;SDS011;11362;48.102;11.620;2023-07-13T06:18:03;4.47;;;1.90;;
22388;SDS011;11362;48.102;11.620;2023-07-13T06:20:28;4.30;;;1.80;;
22388;SDS011;11362;48.102;11.620;2023-07-13T06:22:54;3.40;;;1.73;;
22388;SDS011;11362;48.102;11.620;2023-07-13T06:25:19;1.70;;;1.60;;
22388;SDS011;11362;48.102;11.620;2023-07-13T06:27:44;2.60;;;1.60;;
22388;SDS011;11362;48.102;11.620;2023-07-13T06:30:10;2.30;;;1.67;;
22388;SDS011;11362;48.102;11.620;2023-07-13T06:32:36;1.87;;;1.77;;
22388;SDS011;11362;48.102;11.620;2023-07-13T06:35:01;1.90;;;1.80;;
22388;SDS011;11362;48.102;11.620;2023-07-13T06:37:26;3.23;;;1.90;;
22388;SDS011;11362;48.102;11.620;2023-07-13T06:39:52;1.97;;;1.87;;
22388;SDS011;11362;48.102;11.620;2023-07-13T06:42:17;2.00;;;1.80;;
22388;SDS011;11362;48.102;11.620;2023-07-13T06:44:42;1.83;;;1.73;;
22388;SDS011;11362;48.102;11.620;2023-07-13T06:47:08;6.40;;;1.90;;
22388;SDS011;11362;48.102;11.620;2023-07-13T06:49:33;3.50;;;1.90;;
22388;SDS011;11362;48.102;11.620;2023-07-13T06:51:58;3.77;;;1.90;;
22388;SDS011;11362;48.102;11.620;2023-07-13T06:54:23;6.70;;;2.33;;
22388;SDS011;11362;48.102;11.620;2023-07-13T06:56:49;4.57;;;2.43;;
22388;SDS011;11362;48.102;11.620;2023-07-13T06:59:14;1.90;;;1.67;;
22388;SDS011;11362;48.102;11.620;2023-07-13T07:01:39;3.43;;;1.90;;
22388;SDS011;11362;48.102;11.620;2023-07-13T07:04:04;1.80;;;1.70;;
22388;SDS011;11362;48.102;11.620;2023-07-13T07:06:30;1.90;;;1.53;;
22388;SDS011;11362;48.102;11.620;2023-07-13T07:08:55;4.37;;;1.80;;
22388;SDS011;11362;48.102;11.620;2023-07-13T07:11:22;3.90;;;2.00;;
22388;SDS011;11362;48.102;11.620;2023-07-13T07:13:50;2.30;;;2.10;;
22388;SDS011;11362;48.102;11.620;2023-07-13T07:16:18;2.73;;;1.80;;
22388;SDS011;11362;48.102;11.620;2023-07-13T07:18:44;2.33;;;2.13;;
22388;SDS011;11362;48.102;11.620;2023-07-13T07:21:10;2.97;;;1.87;;
22388;SDS011;11362;48.102;11.620;2023-07-13T07:23:35;4.37;;;2.20;;
22388;SDS011;11362;48.102;11.620;2023-07-13T07:26:02;12.67;;;3.60;;
22388;SDS011;11362;48.102;11.620;2023-07-13T07:28:27;6.83;;;2.30;;
22388;SDS011;11362;48.102;11.620;2023-07-13T07:30:53;2.93;;;2.00;;
22388;SDS011;11362;48.102;11.620;2023-07-13T07:33:20;7.43;;;2.10;;
22388;SDS011;11362;48.102;11.620;2023-07-13T07:35:45;1.97;;;1.77;;
22388;SDS011;11362;48.102;11.620;2023-07-13T07:38:11;3.30;;;2.27;;
22388;SDS011;11362;48.102;11.620;2023-07-13T07:40:39;3.63;;;1.87;;
22388;SDS011;11362;48.102;11.620;2023-07-13T07:43:06;9.10;;;2.23;;
22388;SDS011;11362;48.102;11.620;2023-07-13T07:45:35;2.60;;;1.90;;
22388;SDS011;11362;48.102;11.620;2023-07-13T07:48:01;7.00;;;2.13;;
22388;SDS011;11362;48.102;11.620;2023-07-13T07:50:27;1.77;;;1.67;;
22388;SDS011;11362;48.102;11.620;2023-07-13T07:52:53;4.13;;;2.23;;
22388;SDS011;11362;48.102;11.620;2023-07-13T07:55:19;2.83;;;1.77;;
22388;SDS011;11362;48.102;11.620;2023-07-13T07:57:44;2.33;;;1.83;;
22388;SDS011;11362;48.102;11.620;2023-07-13T08:00:10;2.53;;;2.17;;
22388;SDS011;11362;48.102;11.620;2023-07-13T08:02:35;2.33;;;2.10;;
22388;SDS011;11362;48.102;11.620;2023-07-13T08:05:01;4.80;;;1.70;;
22388;SDS011;11362;48.102;11.620;2023-07-13T08:07:26;4.90;;;2.07;;
22388;SDS011;11362;48.102;11.620;2023-07-13T08:09:52;10.43;;;2.70;;
22388;SDS011;11362;48.102;11.620;2023-07-13T08:12:18;2.10;;;2.00;;
22388;SDS011;11362;48.102;11.620;2023-07-13T08:14:43;2.37;;;1.93;;
22388;SDS011;11362;48.102;11.620;2023-07-13T08:17:08;2.67;;;2.30;;
22388;SDS011;11362;48.102;11.620;2023-07-13T08:19:34;2.73;;;2.23;;
22388;SDS011;11362;48.102;11.620;2023-07-13T08:21:59;4.33;;;2.00;;
22388;SDS011;11362;48.102;11.620;2023-07-13T08:24:24;5.13;;;1.90;;
22388;SDS011;11362;48.102;11.620;2023-07-13T08:26:50;4.90;;;1.97;;
22388;SDS011;11362;48.102;11.620;2023-07-13T08:29:16;3.13;;;2.27;;
22388;SDS011;11362;48.102;11.620;2023-07-13T08:31:41;2.13;;;1.93;;
22388;SDS011;11362;48.102;11.620;2023-07-13T08:34:06;3.10;;;1.80;;
22388;SDS011;11362;48.102;11.620;2023-07-13T08:36:32;4.63;;;2.40;;
22388;SDS011;11362;48.102;11.620;2023-07-13T08:38:57;3.93;;;2.40;;
22388;SDS011;11362;48.102;11.620;2023-07-13T08:41:23;4.10;;;1.70;;
22388;SDS011;11362;48.102;11.620;2023-07-13T08:43:49;4.87;;;2.10;;
22388;SDS011;11362;48.102;11.620;2023-07-13T08:48:49;3.10;;;2.13;;
22388;SDS011;11362;48.102;11.620;2023-07-13T08:52:03;3.37;;;2.03;;
22388;SDS011;11362;48.102;11.620;2023-07-13T08:54:18;6.47;;;2.57;;
22388;SDS011;11362;48.102;11.620;2023-07-13T08:56:50;5.30;;;2.20;;
22388;SDS011;11362;48.102;11.620;2023-07-13T08:59:19;3.33;;;2.27;;
22388;SDS011;11362;48.102;11.620;2023-07-13T09:04:25;2.77;;;2.57;;
22388;SDS011;11362;48.102;11.620;2023-07-13T09:12:14;4.03;;;1.73;;
22388;SDS011;11362;48.102;11.620;2023-07-13T09:14:50;3.07;;;1.83;;
22388;SDS011;11362;48.102;11.620;2023-07-13T09:17:20;7.07;;;2.13;;
22388;SDS011;11362;48.102;11.620;2023-07-13T09:19:53;8.57;;;2.27;;
22388;SDS011;11362;48.102;11.620;2023-07-13T09:22:43;26.00;;;3.60;;
22388;SDS011;11362;48.102;11.620;2023-07-13T09:25:24;4.70;;;1.70;;
22388;SDS011;11362;48.102;11.620;2023-07-13T09:27:55;3.57;;;2.27;;
22388;SDS011;11362;48.102;11.620;2023-07-13T09:30:33;3.60;;;2.10;;
22388;SDS011;11362;48.102;11.620;2023-07-13T09:33:03;3.43;;;1.90;;
22388;SDS011;11362;48.102;11.620;2023-07-13T09:35:29;3.10;;;1.77;;
22388;SDS011;11362;48.102;11.620;2023-07-13T09:37:59;2.33;;;1.70;;
22388;SDS011;11362;48.102;11.620;2023-07-13T09:40:44;5.40;;;1.90;;
22388;SDS011;11362;48.102;11.620;2023-07-13T09:43:18;3.90;;;1.80;;
22388;SDS011;11362;48.102;11.620;2023-07-13T09:45:45;2.30;;;2.00;;
22388;SDS011;11362;48.102;11.620;2023-07-13T09:48:12;3.63;;;2.00;;
22388;SDS011;11362;48.102;11.620;2023-07-13T09:50:39;1.87;;;1.70;;
22388;SDS011;11362;48.102;11.620;2023-07-13T09:53:11;2.63;;;1.77;;
22388;SDS011;11362;48.102;11.620;2023-07-13T09:55:39;3.80;;;1.93;;
22388;SDS011;11362;48.102;11.620;2023-07-13T09:58:26;2.30;;;1.80;;
22388;SDS011;11362;48.102;11.620;2023-07-13T10:00:56;2.43;;;1.90;;
22388;SDS011;11362;48.102;11.620;2023-07-13T10:03:24;2.37;;;1.73;;
22388;SDS011;11362;48.102;11.620;2023-07-13T10:05:51;4.30;;;1.90;;
22388;SDS011;11362;48.102;11.620;2023-07-13T10:08:18;3.20;;;1.83;;
22388;SDS011;11362;48.102;11.620;2023-07-13T10:10:44;2.17;;;1.57;;
22388;SDS011;11362;48.102;11.620;2023-07-13T10:13:26;3.83;;;1.67;;
22388;SDS011;11362;48.102;11.620;2023-07-13T10:15:55;4.47;;;2.23;;
22388;SDS011;11362;48.102;11.620;2023-07-13T10:18:21;5.33;;;2.10;;
22388;SDS011;11362;48.102;11.620;2023-07-13T10:20:48;4.27;;;2.10;;
22388;SDS011;11362;48.102;11.620;2023-07-13T10:23:20;5.07;;;1.70;;
22388;SDS011;11362;48.102;11.620;2023-07-13T10:25:50;1.60;;;1.50;;
22388;SDS011;11362;48.102;11.620;2023-07-13T10:31:04;3.70;;;1.97;;
22388;SDS011;11362;48.102;11.620;2023-07-13T10:33:34;3.33;;;1.93;;
22388;SDS011;11362;48.102;11.620;2023-07-13T10:36:24;7.90;;;2.30;;
22388;SDS011;11362;48.102;11.620;2023-07-13T10:38:53;4.60;;;2.27;;
22388;SDS011;11362;48.102;11.620;2023-07-13T10:41:23;2.40;;;1.60;;
22388;SDS011;11362;48.102;11.620;2023-07-13T10:43:51;3.40;;;1.57;;
22388;SDS011;11362;48.102;11.620;2023-07-13T10:46:19;3.83;;;1.87;;
22388;SDS011;11362;48.102;11.620;2023-07-13T10:48:48;2.70;;;1.50;;
22388;SDS011;11362;48.102;11.620;2023-07-13T10:51:18;3.13;;;1.63;;
22388;SDS011;11362;48.102;11.620;2023-07-13T10:53:44;5.63;;;1.70;;
22388;SDS011;11362;48.102;11.620;2023-07-13T10:56:22;2.87;;;1.90;;
22388;SDS011;11362;48.102;11.620;2023-07-13T11:01:55;3.03;;;1.80;;
22388;SDS011;11362;48.102;11.620;2023-07-13T11:04:23;2.43;;;1.57;;
22388;SDS011;11362;48.102;11.620;2023-07-13T11:06:52;5.37;;;1.93;;
22388;SDS011;11362;48.102;11.620;2023-07-13T11:12:06;2.67;;;1.60;;
22388;SDS011;11362;48.102;11.620;2023-07-13T11:14:35;3.27;;;1.40;;
22388;SDS011;11362;48.102;11.620;2023-07-13T11:22:52;3.50;;;1.83;;
22388;SDS011;11362;48.102;11.620;2023-07-13T11:25:33;9.67;;;1.47;;
22388;SDS011;11362;48.102;11.620;2023-07-13T11:35:51;2.03;;;1.20;;
22388;SDS011;11362;48.102;11.620;2023-07-13T11:38:18;2.47;;;1.30;;
22388;SDS011;11362;48.102;11.620;2023-07-13T11:40:47;4.47;;;1.70;;
22388;SDS011;11362;48.102;11.620;2023-07-13T11:43:15;1.77;;;0.93;;
22388;SDS011;11362;48.102;11.620;2023-07-13T11:45:41;2.50;;;1.40;;
22388;SDS011;11362;48.102;11.620;2023-07-13T11:48:21;2.20;;;1.87;;
22388;SDS011;11362;48.102;11.620;2023-07-13T11:50:58;3.70;;;1.13;;
22388;SDS011;11362;48.102;11.620;2023-07-13T11:53:28;1.87;;;1.27;;
22388;SDS011;11362;48.102;11.620;2023-07-13T11:55:58;1.67;;;1.30;;
22388;SDS011;11362;48.102;11.620;2023-07-13T11:58:24;5.53;;;1.33;;
22388;SDS011;11362;48.102;11.620;2023-07-13T12:00:51;4.60;;;1.40;;
22388;SDS011;11362;48.102;11.620;2023-07-13T12:03:19;2.87;;;1.30;;
22388;SDS011;11362;48.102;11.620;2023-07-13T12:05:57;1.93;;;1.43;;
22388;SDS011;11362;48.102;11.620;2023-07-13T12:08:27;3.03;;;1.20;;
22388;SDS011;11362;48.102;11.620;2023-07-13T12:10:57;3.37;;;1.50;;
22388;SDS011;11362;48.102;11.620;2023-07-13T12:13:24;3.70;;;1.40;;
22388;SDS011;11362;48.102;11.620;2023-07-13T12:15:51;1.20;;;1.10;;
22388;SDS011;11362;48.102;11.620;2023-07-13T12:18:20;1.40;;;1.13;;
22388;SDS011;11362;48.102;11.620;2023-07-13T12:20:48;2.67;;;1.50;;
22388;SDS011;11362;48.102;11.620;2023-07-13T12:23:20;3.27;;;1.80;;
22388;SDS011;11362;48.102;11.620;2023-07-13T12:25:49;2.10;;;1.60;;
22388;SDS011;11362;48.102;11.620;2023-07-13T12:30:57;2.70;;;1.40;;
22388;SDS011;11362;48.102;11.620;2023-07-13T12:33:24;1.83;;;1.60;;
22388;SDS011;11362;48.102;11.620;2023-07-13T12:35:52;4.87;;;1.60;;
22388;SDS011;11362;48.102;11.620;2023-07-13T12:38:17;1.17;;;1.17;;
22388;SDS011;11362;48.102;11.620;2023-07-13T12:40:43;2.43;;;1.50;;
22388;SDS011;11362;48.102;11.620;2023-07-13T12:43:12;5.47;;;1.90;;
22388;SDS011;11362;48.102;11.620;2023-07-13T12:45:39;1.27;;;1.17;;
22388;SDS011;11362;48.102;11.620;2023-07-13T12:48:19;3.27;;;1.30;;
22388;SDS011;11362;48.102;11.620;2023-07-13T12:50:46;3.13;;;1.10;;
22388;SDS011;11362;48.102;11.620;2023-07-13T12:53:13;2.80;;;1.33;;
22388;SDS011;11362;48.102;11.620;2023-07-13T12:55:44;2.47;;;1.20;;
22388;SDS011;11362;48.102;11.620;2023-07-13T12:58:16;1.67;;;1.57;;
22388;SDS011;11362;48.102;11.620;2023-07-13T13:00:51;2.23;;;1.30;;
22388;SDS011;11362;48.102;11.620;2023-07-13T13:05:49;4.13;;;1.50;;
22388;SDS011;11362;48.102;11.620;2023-07-13T13:08:21;3.37;;;1.50;;
22388;SDS011;11362;48.102;11.620;2023-07-13T13:10:47;2.30;;;1.23;;
22388;SDS011;11362;48.102;11.620;2023-07-13T13:13:12;4.57;;;1.77;;
22388;SDS011;11362;48.102;11.620;2023-07-13T13:15:37;1.43;;;1.13;;
22388;SDS011;11362;48.102;11.620;2023-07-13T13:18:03;2.77;;;1.27;;
22388;SDS011;11362;48.102;11.620;2023-07-13T13:20:30;9.60;;;1.90;;
22388;SDS011;11362;48.102;11.620;2023-07-13T13:22:55;3.43;;;1.70;;
22388;SDS011;11362;48.102;11.620;2023-07-13T13:25:20;1.53;;;1.30;;
22388;SDS011;11362;48.102;11.620;2023-07-13T13:27:46;3.97;;;1.40;;
22388;SDS011;11362;48.102;11.620;2023-07-13T13:30:11;1.80;;;1.23;;
22388;SDS011;11362;48.102;11.620;2023-07-13T13:32:42;3.93;;;1.43;;
22388;SDS011;11362;48.102;11.620;2023-07-13T13:35:18;1.83;;;1.20;;
22388;SDS011;11362;48.102;11.620;2023-07-13T13:37:45;1.27;;;1.17;;
22388;SDS011;11362;48.102;11.620;2023-07-13T13:40:15;2.97;;;1.30;;
22388;SDS011;11362;48.102;11.620;2023-07-13T13:42:45;3.53;;;1.43;;
22388;SDS011;11362;48.102;11.620;2023-07-13T13:45:11;3.30;;;1.33;;
22388;SDS011;11362;48.102;11.620;2023-07-13T13:47:37;1.57;;;1.47;;
22388;SDS011;11362;48.102;11.620;2023-07-13T13:50:16;1.27;;;1.10;;
22388;SDS011;11362;48.102;11.620;2023-07-13T13:52:43;1.43;;;1.33;;
22388;SDS011;11362;48.102;11.620;2023-07-13T13:55:15;2.30;;;1.60;;
22388;SDS011;11362;48.102;11.620;2023-07-13T13:57:42;2.33;;;1.13;;
22388;SDS011;11362;48.102;11.620;2023-07-13T14:00:09;5.60;;;1.70;;
22388;SDS011;11362;48.102;11.620;2023-07-13T14:02:35;6.80;;;1.70;;
22388;SDS011;11362;48.102;11.620;2023-07-13T14:05:01;4.70;;;2.13;;
22388;SDS011;11362;48.102;11.620;2023-07-13T14:07:28;1.40;;;1.30;;
22388;SDS011;11362;48.102;11.620;2023-07-13T14:09:55;2.67;;;1.40;;
22388;SDS011;11362;48.102;11.620;2023-07-13T14:12:22;4.07;;;1.60;;
22388;SDS011;11362;48.102;11.620;2023-07-13T14:14:48;2.87;;;1.53;;
22388;SDS011;11362;48.102;11.620;2023-07-13T14:17:19;6.27;;;1.77;;
22388;SDS011;11362;48.102;11.620;2023-07-13T14:19:47;7.80;;;1.90;;
22388;SDS011;11362;48.102;11.620;2023-07-13T14:22:13;6.50;;;1.60;;
22388;SDS011;11362;48.102;11.620;2023-07-13T14:24:38;5.60;;;1.73;;
22388;SDS011;11362;48.102;11.620;2023-07-13T14:27:04;5.40;;;2.13;;
22388;SDS011;11362;48.102;11.620;2023-07-13T14:29:29;7.63;;;1.80;;
22388;SDS011;11362;48.102;11.620;2023-07-13T14:31:55;7.10;;;2.00;;
22388;SDS011;11362;48.102;11.620;2023-07-13T14:34:20;8.40;;;2.13;;
22388;SDS011;11362;48.102;11.620;2023-07-13T14:36:46;12.87;;;2.00;;
22388;SDS011;11362;48.102;11.620;2023-07-13T14:39:17;5.73;;;1.60;;
22388;SDS011;11362;48.102;11.620;2023-07-13T14:41:44;4.87;;;1.80;;
22388;SDS011;11362;48.102;11.620;2023-07-13T14:44:11;3.30;;;1.10;;
22388;SDS011;11362;48.102;11.620;2023-07-13T14:46:37;2.80;;;1.60;;
22388;SDS011;11362;48.102;11.620;2023-07-13T14:49:04;1.70;;;1.60;;
22388;SDS011;11362;48.102;11.620;2023-07-13T14:51:36;1.63;;;1.20;;
22388;SDS011;11362;48.102;11.620;2023-07-13T14:54:02;2.57;;;1.23;;
22388;SDS011;11362;48.102;11.620;2023-07-13T14:56:30;2.43;;;1.83;;
22388;SDS011;11362;48.102;11.620;2023-07-13T14:58:56;1.40;;;1.13;;
22388;SDS011;11362;48.102;11.620;2023-07-13T15:01:21;14.67;;;2.40;;
22388;SDS011;11362;48.102;11.620;2023-07-13T15:03:48;4.40;;;1.90;;
22388;SDS011;11362;48.102;11.620;2023-07-13T15:06:15;8.37;;;2.00;;
22388;SDS011;11362;48.102;11.620;2023-07-13T15:08:41;11.57;;;2.13;;
22388;SDS011;11362;48.102;11.620;2023-07-13T15:11:09;4.03;;;1.80;;